sensor_id;sensor_type;location;lat;lon;timestamp;P1;durP1;ratioP1;P2;durP2;ratioP2
25663;SDS011;13522;50.018;20.014;2023-01-01T00:01:08;37.53;;;22.43;;
25663;SDS011;13522;50.018;20.014;2023-01-01T00:04:25;35.50;;;22.78;;
25663;SDS011;13522;50.018;20.014;2023-01-01T00:07:37;39.43;;;24.35;;
25663;SDS011;13522;50.018;20.014;2023-01-01T00:10:49;35.75;;;23.43;;
25663;SDS011;13522;50.018;20.014;2023-01-01T00:14:01;35.08;;;23.00;;
25663;SDS011;13522;50.018;20.014;2023-01-01T00:17:15;37.58;;;22.53;;
25663;SDS011;13522;50.018;20.014;2023-01-01T00:20:27;38.18;;;24.53;;
25663;SDS011;13522;50.018;20.014;2023-01-01T00:23:39;39.50;;;24.73;;
25663;SDS011;13522;50.018;20.014;2023-01-01T00:26:51;42.98;;;27.03;;
25663;SDS011;13522;50.018;20.014;2023-01-01T00:30:04;47.10;;;29.35;;
25663;SDS011;13522;50.018;20.014;2023-01-01T00:33:31;41.55;;;28.43;;
25663;SDS011;13522;50.018;20.014;2023-01-01T00:36:42;47.35;;;28.50;;
25663;SDS011;13522;50.018;20.014;2023-01-01T00:39:54;46.70;;;29.33;;
25663;SDS011;13522;50.018;20.014;2023-01-01T00:43:06;45.33;;;28.05;;
25663;SDS011;13522;50.018;20.014;2023-01-01T00:46:19;46.15;;;29.65;;
25663;SDS011;13522;50.018;20.014;2023-01-01T00:49:31;51.13;;;31.65;;
25663;SDS011;13522;50.018;20.014;2023-01-01T00:52:43;48.40;;;30.10;;
25663;SDS011;13522;50.018;20.014;2023-01-01T00:55:56;46.95;;;29.25;;
25663;SDS011;13522;50.018;20.014;2023-01-01T00:59:08;47.08;;;28.48;;
25663;SDS011;13522;50.018;20.014;2023-01-01T01:02:20;44.43;;;27.60;;
25663;SDS011;13522;50.018;20.014;2023-01-01T01:05:33;43.03;;;27.83;;
25663;SDS011;13522;50.018;20.014;2023-01-01T01:08:47;49.00;;;31.00;;
25663;SDS011;13522;50.018;20.014;2023-01-01T01:11:59;45.50;;;26.88;;
25663;SDS011;13522;50.018;20.014;2023-01-01T01:15:13;43.05;;;27.28;;
25663;SDS011;13522;50.018;20.014;2023-01-01T01:18:25;45.88;;;25.75;;
25663;SDS011;13522;50.018;20.014;2023-01-01T01:21:37;41.65;;;25.58;;
25663;SDS011;13522;50.018;20.014;2023-01-01T01:24:50;57.50;;;32.23;;
25663;SDS011;13522;50.018;20.014;2023-01-01T01:28:03;55.28;;;34.73;;
25663;SDS011;13522;50.018;20.014;2023-01-01T01:31:15;56.23;;;36.78;;
25663;SDS011;13522;50.018;20.014;2023-01-01T01:34:28;52.75;;;33.95;;
25663;SDS011;13522;50.018;20.014;2023-01-01T01:37:40;54.58;;;32.65;;
25663;SDS011;13522;50.018;20.014;2023-01-01T01:40:52;49.85;;;31.45;;
25663;SDS011;13522;50.018;20.014;2023-01-01T01:44:42;55.25;;;33.40;;
25663;SDS011;13522;50.018;20.014;2023-01-01T01:47:50;52.83;;;33.50;;
25663;SDS011;13522;50.018;20.014;2023-01-01T01:51:05;60.63;;;37.78;;
25663;SDS011;13522;50.018;20.014;2023-01-01T01:54:19;53.75;;;37.15;;
25663;SDS011;13522;50.018;20.014;2023-01-01T01:57:35;55.28;;;36.08;;
25663;SDS011;13522;50.018;20.014;2023-01-01T02:00:48;74.18;;;46.25;;
25663;SDS011;13522;50.018;20.014;2023-01-01T02:04:01;52.83;;;34.73;;
25663;SDS011;13522;50.018;20.014;2023-01-01T02:07:14;57.38;;;35.90;;
25663;SDS011;13522;50.018;20.014;2023-01-01T02:10:28;54.60;;;35.20;;
25663;SDS011;13522;50.018;20.014;2023-01-01T02:13:41;56.05;;;34.80;;
25663;SDS011;13522;50.018;20.014;2023-01-01T02:16:54;51.63;;;33.65;;
25663;SDS011;13522;50.018;20.014;2023-01-01T02:27:45;60.98;;;37.73;;
25663;SDS011;13522;50.018;20.014;2023-01-01T02:31:02;67.73;;;41.73;;
25663;SDS011;13522;50.018;20.014;2023-01-01T02:34:18;61.73;;;38.78;;
25663;SDS011;13522;50.018;20.014;2023-01-01T02:40:45;69.80;;;40.73;;
25663;SDS011;13522;50.018;20.014;2023-01-01T02:44:02;64.43;;;41.88;;
25663;SDS011;13522;50.018;20.014;2023-01-01T02:47:16;71.43;;;43.70;;
25663;SDS011;13522;50.018;20.014;2023-01-01T02:50:29;70.85;;;43.40;;
25663;SDS011;13522;50.018;20.014;2023-01-01T02:53:44;67.00;;;39.35;;
25663;SDS011;13522;50.018;20.014;2023-01-01T02:57:05;66.33;;;39.10;;
25663;SDS011;13522;50.018;20.014;2023-01-01T03:00:23;67.50;;;42.38;;
25663;SDS011;13522;50.018;20.014;2023-01-01T03:03:37;67.98;;;43.55;;
25663;SDS011;13522;50.018;20.014;2023-01-01T03:06:58;74.13;;;46.08;;
25663;SDS011;13522;50.018;20.014;2023-01-01T03:10:16;70.38;;;41.25;;
25663;SDS011;13522;50.018;20.014;2023-01-01T03:13:34;69.75;;;39.75;;
25663;SDS011;13522;50.018;20.014;2023-01-01T03:16:53;66.23;;;37.60;;
25663;SDS011;13522;50.018;20.014;2023-01-01T03:20:10;60.03;;;38.40;;
25663;SDS011;13522;50.018;20.014;2023-01-01T03:23:28;76.30;;;46.80;;
25663;SDS011;13522;50.018;20.014;2023-01-01T03:26:46;61.68;;;40.53;;
25663;SDS011;13522;50.018;20.014;2023-01-01T03:33:17;58.68;;;36.75;;
25663;SDS011;13522;50.018;20.014;2023-01-01T03:36:36;65.80;;;39.90;;
25663;SDS011;13522;50.018;20.014;2023-01-01T03:39:53;69.60;;;42.03;;
25663;SDS011;13522;50.018;20.014;2023-01-01T03:46:25;63.45;;;39.83;;
25663;SDS011;13522;50.018;20.014;2023-01-01T03:49:40;61.00;;;37.73;;
25663;SDS011;13522;50.018;20.014;2023-01-01T03:52:54;60.05;;;37.35;;
25663;SDS011;13522;50.018;20.014;2023-01-01T03:59:24;63.43;;;37.55;;
25663;SDS011;13522;50.018;20.014;2023-01-01T04:02:43;56.00;;;36.80;;
25663;SDS011;13522;50.018;20.014;2023-01-01T04:06:00;61.58;;;41.23;;
25663;SDS011;13522;50.018;20.014;2023-01-01T04:09:16;65.70;;;38.53;;
25663;SDS011;13522;50.018;20.014;2023-01-01T04:12:31;59.73;;;35.28;;
25663;SDS011;13522;50.018;20.014;2023-01-01T04:15:44;57.58;;;36.78;;
25663;SDS011;13522;50.018;20.014;2023-01-01T04:18:57;62.30;;;39.65;;
25663;SDS011;13522;50.018;20.014;2023-01-01T04:22:10;67.30;;;40.88;;
25663;SDS011;13522;50.018;20.014;2023-01-01T04:25:24;61.85;;;37.30;;
25663;SDS011;13522;50.018;20.014;2023-01-01T04:28:37;57.78;;;35.43;;
25663;SDS011;13522;50.018;20.014;2023-01-01T04:31:49;53.28;;;32.93;;
25663;SDS011;13522;50.018;20.014;2023-01-01T04:35:01;54.53;;;34.20;;
25663;SDS011;13522;50.018;20.014;2023-01-01T04:38:16;60.30;;;37.33;;
25663;SDS011;13522;50.018;20.014;2023-01-01T04:41:28;58.83;;;36.88;;
25663;SDS011;13522;50.018;20.014;2023-01-01T04:44:40;54.53;;;33.18;;
25663;SDS011;13522;50.018;20.014;2023-01-01T04:47:52;49.55;;;29.98;;
25663;SDS011;13522;50.018;20.014;2023-01-01T04:51:04;48.85;;;29.98;;
25663;SDS011;13522;50.018;20.014;2023-01-01T04:54:16;56.70;;;33.38;;
25663;SDS011;13522;50.018;20.014;2023-01-01T04:57:29;58.85;;;34.03;;
25663;SDS011;13522;50.018;20.014;2023-01-01T05:00:45;57.43;;;33.58;;
25663;SDS011;13522;50.018;20.014;2023-01-01T05:04:01;50.58;;;29.93;;
25663;SDS011;13522;50.018;20.014;2023-01-01T05:07:13;31.33;;;19.75;;
25663;SDS011;13522;50.018;20.014;2023-01-01T05:10:25;32.25;;;21.55;;
25663;SDS011;13522;50.018;20.014;2023-01-01T05:13:37;44.53;;;25.75;;
25663;SDS011;13522;50.018;20.014;2023-01-01T05:16:51;41.68;;;26.75;;
25663;SDS011;13522;50.018;20.014;2023-01-01T05:20:04;42.65;;;24.60;;
25663;SDS011;13522;50.018;20.014;2023-01-01T05:23:18;34.20;;;20.95;;
25663;SDS011;13522;50.018;20.014;2023-01-01T05:26:30;26.48;;;17.60;;
25663;SDS011;13522;50.018;20.014;2023-01-01T05:29:44;38.70;;;23.93;;
25663;SDS011;13522;50.018;20.014;2023-01-01T05:32:56;37.70;;;24.80;;
25663;SDS011;13522;50.018;20.014;2023-01-01T05:36:10;41.08;;;23.90;;
25663;SDS011;13522;50.018;20.014;2023-01-01T05:39:26;47.20;;;29.15;;
25663;SDS011;13522;50.018;20.014;2023-01-01T05:42:38;43.25;;;26.53;;
25663;SDS011;13522;50.018;20.014;2023-01-01T05:45:56;36.58;;;22.85;;
25663;SDS011;13522;50.018;20.014;2023-01-01T05:49:12;39.83;;;23.13;;
25663;SDS011;13522;50.018;20.014;2023-01-01T05:52:24;40.03;;;24.50;;
25663;SDS011;13522;50.018;20.014;2023-01-01T05:55:36;43.30;;;25.95;;
25663;SDS011;13522;50.018;20.014;2023-01-01T05:58:48;36.23;;;23.35;;
25663;SDS011;13522;50.018;20.014;2023-01-01T06:02:02;27.68;;;16.48;;
25663;SDS011;13522;50.018;20.014;2023-01-01T06:05:14;30.48;;;17.38;;
25663;SDS011;13522;50.018;20.014;2023-01-01T06:08:26;29.35;;;18.80;;
25663;SDS011;13522;50.018;20.014;2023-01-01T06:11:38;29.55;;;17.15;;
25663;SDS011;13522;50.018;20.014;2023-01-01T06:14:50;33.45;;;19.48;;
25663;SDS011;13522;50.018;20.014;2023-01-01T06:18:03;26.93;;;17.20;;
25663;SDS011;13522;50.018;20.014;2023-01-01T06:21:15;29.78;;;17.00;;
25663;SDS011;13522;50.018;20.014;2023-01-01T06:24:29;27.33;;;16.68;;
25663;SDS011;13522;50.018;20.014;2023-01-01T06:27:42;19.98;;;13.08;;
25663;SDS011;13522;50.018;20.014;2023-01-01T06:30:54;14.95;;;8.03;;
25663;SDS011;13522;50.018;20.014;2023-01-01T06:34:09;13.90;;;8.10;;
25663;SDS011;13522;50.018;20.014;2023-01-01T06:37:22;10.38;;;6.33;;
25663;SDS011;13522;50.018;20.014;2023-01-01T06:40:34;10.80;;;6.05;;
25663;SDS011;13522;50.018;20.014;2023-01-01T06:43:47;11.03;;;6.70;;
25663;SDS011;13522;50.018;20.014;2023-01-01T06:46:59;10.18;;;6.18;;
25663;SDS011;13522;50.018;20.014;2023-01-01T06:50:12;11.50;;;6.48;;
25663;SDS011;13522;50.018;20.014;2023-01-01T06:53:24;12.70;;;7.80;;
25663;SDS011;13522;50.018;20.014;2023-01-01T06:56:37;16.63;;;10.18;;
25663;SDS011;13522;50.018;20.014;2023-01-01T06:59:49;17.00;;;9.45;;
25663;SDS011;13522;50.018;20.014;2023-01-01T07:03:01;17.53;;;8.80;;
25663;SDS011;13522;50.018;20.014;2023-01-01T07:06:13;11.60;;;7.80;;
25663;SDS011;13522;50.018;20.014;2023-01-01T07:09:25;13.15;;;7.93;;
25663;SDS011;13522;50.018;20.014;2023-01-01T07:12:37;14.25;;;8.15;;
25663;SDS011;13522;50.018;20.014;2023-01-01T07:15:49;14.83;;;8.05;;
25663;SDS011;13522;50.018;20.014;2023-01-01T07:19:02;13.85;;;7.85;;
25663;SDS011;13522;50.018;20.014;2023-01-01T07:22:14;14.98;;;8.90;;
25663;SDS011;13522;50.018;20.014;2023-01-01T07:25:26;15.83;;;9.23;;
25663;SDS011;13522;50.018;20.014;2023-01-01T07:28:38;12.78;;;8.58;;
25663;SDS011;13522;50.018;20.014;2023-01-01T07:31:50;13.75;;;8.65;;
25663;SDS011;13522;50.018;20.014;2023-01-01T07:35:02;16.25;;;9.38;;
25663;SDS011;13522;50.018;20.014;2023-01-01T07:38:16;15.90;;;9.70;;
25663;SDS011;13522;50.018;20.014;2023-01-01T07:41:28;14.13;;;8.05;;
25663;SDS011;13522;50.018;20.014;2023-01-01T07:44:40;14.55;;;8.93;;
25663;SDS011;13522;50.018;20.014;2023-01-01T07:47:52;17.93;;;10.20;;
25663;SDS011;13522;50.018;20.014;2023-01-01T07:51:06;23.78;;;13.40;;
25663;SDS011;13522;50.018;20.014;2023-01-01T07:54:18;25.05;;;12.43;;
25663;SDS011;13522;50.018;20.014;2023-01-01T07:57:30;14.03;;;9.38;;
25663;SDS011;13522;50.018;20.014;2023-01-01T08:00:43;15.83;;;9.80;;
25663;SDS011;13522;50.018;20.014;2023-01-01T08:03:56;14.95;;;9.45;;
25663;SDS011;13522;50.018;20.014;2023-01-01T08:07:08;16.95;;;9.00;;
25663;SDS011;13522;50.018;20.014;2023-01-01T08:10:20;17.78;;;11.28;;
25663;SDS011;13522;50.018;20.014;2023-01-01T08:13:33;18.43;;;11.60;;
25663;SDS011;13522;50.018;20.014;2023-01-01T08:16:45;17.55;;;10.25;;
25663;SDS011;13522;50.018;20.014;2023-01-01T08:19:57;36.23;;;19.78;;
25663;SDS011;13522;50.018;20.014;2023-01-01T08:23:09;48.45;;;23.75;;
25663;SDS011;13522;50.018;20.014;2023-01-01T08:26:27;24.68;;;13.98;;
25663;SDS011;13522;50.018;20.014;2023-01-01T08:29:41;18.20;;;10.73;;
25663;SDS011;13522;50.018;20.014;2023-01-01T08:32:53;18.30;;;10.58;;
25663;SDS011;13522;50.018;20.014;2023-01-01T08:36:07;20.90;;;10.78;;
25663;SDS011;13522;50.018;20.014;2023-01-01T08:39:24;17.35;;;10.58;;
25663;SDS011;13522;50.018;20.014;2023-01-01T08:42:36;18.95;;;10.88;;
25663;SDS011;13522;50.018;20.014;2023-01-01T08:45:48;16.73;;;10.10;;
25663;SDS011;13522;50.018;20.014;2023-01-01T08:49:00;16.43;;;10.40;;
25663;SDS011;13522;50.018;20.014;2023-01-01T08:52:13;20.03;;;11.68;;
25663;SDS011;13522;50.018;20.014;2023-01-01T08:55:25;24.20;;;14.90;;
25663;SDS011;13522;50.018;20.014;2023-01-01T08:58:38;21.28;;;11.25;;
25663;SDS011;13522;50.018;20.014;2023-01-01T09:01:51;19.40;;;10.93;;
25663;SDS011;13522;50.018;20.014;2023-01-01T09:05:04;18.60;;;10.55;;
25663;SDS011;13522;50.018;20.014;2023-01-01T09:08:18;16.98;;;9.93;;
25663;SDS011;13522;50.018;20.014;2023-01-01T09:11:31;19.65;;;10.23;;
25663;SDS011;13522;50.018;20.014;2023-01-01T09:14:44;17.85;;;10.50;;
25663;SDS011;13522;50.018;20.014;2023-01-01T09:18:00;14.90;;;9.98;;
25663;SDS011;13522;50.018;20.014;2023-01-01T09:21:13;18.70;;;10.30;;
25663;SDS011;13522;50.018;20.014;2023-01-01T09:24:25;63.95;;;37.35;;
25663;SDS011;13522;50.018;20.014;2023-01-01T09:27:37;50.35;;;29.68;;
25663;SDS011;13522;50.018;20.014;2023-01-01T09:30:49;29.85;;;17.75;;
25663;SDS011;13522;50.018;20.014;2023-01-01T09:34:01;20.00;;;12.43;;
25663;SDS011;13522;50.018;20.014;2023-01-01T09:37:13;20.85;;;12.05;;
25663;SDS011;13522;50.018;20.014;2023-01-01T09:40:27;16.80;;;10.75;;
25663;SDS011;13522;50.018;20.014;2023-01-01T09:43:47;25.80;;;15.58;;
25663;SDS011;13522;50.018;20.014;2023-01-01T09:47:05;52.00;;;26.68;;
25663;SDS011;13522;50.018;20.014;2023-01-01T09:50:26;19.58;;;11.83;;
25663;SDS011;13522;50.018;20.014;2023-01-01T09:53:43;16.40;;;10.13;;
25663;SDS011;13522;50.018;20.014;2023-01-01T09:57:02;17.65;;;10.58;;
25663;SDS011;13522;50.018;20.014;2023-01-01T10:00:21;16.60;;;10.50;;
25663;SDS011;13522;50.018;20.014;2023-01-01T10:03:36;16.95;;;9.70;;
25663;SDS011;13522;50.018;20.014;2023-01-01T10:06:56;14.75;;;8.68;;
25663;SDS011;13522;50.018;20.014;2023-01-01T10:10:13;12.58;;;9.13;;
25663;SDS011;13522;50.018;20.014;2023-01-01T10:13:34;14.45;;;9.08;;
25663;SDS011;13522;50.018;20.014;2023-01-01T10:16:51;15.70;;;9.10;;
25663;SDS011;13522;50.018;20.014;2023-01-01T10:20:10;13.43;;;8.80;;
25663;SDS011;13522;50.018;20.014;2023-01-01T10:23:28;15.75;;;10.40;;
25663;SDS011;13522;50.018;20.014;2023-01-01T10:26:45;16.98;;;9.25;;
25663;SDS011;13522;50.018;20.014;2023-01-01T10:30:00;14.78;;;8.90;;
25663;SDS011;13522;50.018;20.014;2023-01-01T10:33:21;16.53;;;9.18;;
25663;SDS011;13522;50.018;20.014;2023-01-01T10:36:34;13.45;;;8.83;;
25663;SDS011;13522;50.018;20.014;2023-01-01T10:39:46;29.00;;;17.83;;
25663;SDS011;13522;50.018;20.014;2023-01-01T10:42:59;18.83;;;10.95;;
25663;SDS011;13522;50.018;20.014;2023-01-01T10:46:14;16.65;;;11.58;;
25663;SDS011;13522;50.018;20.014;2023-01-01T10:49:31;20.98;;;13.53;;
25663;SDS011;13522;50.018;20.014;2023-01-01T10:52:45;26.95;;;13.75;;
25663;SDS011;13522;50.018;20.014;2023-01-01T10:56:06;18.78;;;9.85;;
25663;SDS011;13522;50.018;20.014;2023-01-01T11:03:12;21.10;;;10.45;;
25663;SDS011;13522;50.018;20.014;2023-01-01T11:06:28;15.78;;;9.63;;
25663;SDS011;13522;50.018;20.014;2023-01-01T11:09:43;16.00;;;10.23;;
25663;SDS011;13522;50.018;20.014;2023-01-01T11:13:00;15.45;;;8.93;;
25663;SDS011;13522;50.018;20.014;2023-01-01T11:16:21;17.53;;;9.45;;
25663;SDS011;13522;50.018;20.014;2023-01-01T11:19:35;14.28;;;8.60;;
25663;SDS011;13522;50.018;20.014;2023-01-01T11:26:03;16.08;;;9.48;;
25663;SDS011;13522;50.018;20.014;2023-01-01T11:29:27;13.33;;;9.45;;
25663;SDS011;13522;50.018;20.014;2023-01-01T11:32:40;55.28;;;35.33;;
25663;SDS011;13522;50.018;20.014;2023-01-01T11:35:54;18.20;;;11.98;;
25663;SDS011;13522;50.018;20.014;2023-01-01T11:39:16;20.30;;;11.35;;
25663;SDS011;13522;50.018;20.014;2023-01-01T11:42:32;17.68;;;10.43;;
25663;SDS011;13522;50.018;20.014;2023-01-01T11:45:48;20.78;;;12.58;;
25663;SDS011;13522;50.018;20.014;2023-01-01T11:49:03;24.98;;;17.60;;
25663;SDS011;13522;50.018;20.014;2023-01-01T11:52:36;18.38;;;10.85;;
25663;SDS011;13522;50.018;20.014;2023-01-01T11:55:51;13.88;;;9.00;;
25663;SDS011;13522;50.018;20.014;2023-01-01T11:59:13;13.90;;;9.25;;
25663;SDS011;13522;50.018;20.014;2023-01-01T12:02:31;19.65;;;9.93;;
25663;SDS011;13522;50.018;20.014;2023-01-01T12:05:49;18.00;;;10.38;;
25663;SDS011;13522;50.018;20.014;2023-01-01T12:09:09;16.13;;;9.50;;
25663;SDS011;13522;50.018;20.014;2023-01-01T12:12:26;14.75;;;9.15;;
25663;SDS011;13522;50.018;20.014;2023-01-01T12:15:45;15.18;;;9.03;;
25663;SDS011;13522;50.018;20.014;2023-01-01T12:19:03;15.88;;;9.08;;
25663;SDS011;13522;50.018;20.014;2023-01-01T12:22:20;16.33;;;9.70;;
25663;SDS011;13522;50.018;20.014;2023-01-01T12:25:35;15.23;;;9.40;;
25663;SDS011;13522;50.018;20.014;2023-01-01T12:28:56;19.93;;;11.05;;
25663;SDS011;13522;50.018;20.014;2023-01-01T12:32:41;16.28;;;11.55;;
25663;SDS011;13522;50.018;20.014;2023-01-01T12:36:12;14.73;;;10.03;;
25663;SDS011;13522;50.018;20.014;2023-01-01T12:43:24;20.93;;;12.40;;
25663;SDS011;13522;50.018;20.014;2023-01-01T12:46:43;17.53;;;11.60;;
25663;SDS011;13522;50.018;20.014;2023-01-01T12:50:03;14.30;;;9.68;;
25663;SDS011;13522;50.018;20.014;2023-01-01T12:53:23;23.28;;;12.93;;
25663;SDS011;13522;50.018;20.014;2023-01-01T12:56:40;19.35;;;10.60;;
25663;SDS011;13522;50.018;20.014;2023-01-01T12:59:58;26.70;;;15.85;;
25663;SDS011;13522;50.018;20.014;2023-01-01T13:03:19;19.95;;;12.58;;
25663;SDS011;13522;50.018;20.014;2023-01-01T13:06:37;15.85;;;9.90;;
25663;SDS011;13522;50.018;20.014;2023-01-01T13:09:53;24.33;;;15.83;;
25663;SDS011;13522;50.018;20.014;2023-01-01T13:13:11;17.58;;;10.35;;
25663;SDS011;13522;50.018;20.014;2023-01-01T13:16:33;14.90;;;9.83;;
25663;SDS011;13522;50.018;20.014;2023-01-01T13:19:48;33.68;;;20.90;;
25663;SDS011;13522;50.018;20.014;2023-01-01T13:23:08;18.85;;;11.75;;
25663;SDS011;13522;50.018;20.014;2023-01-01T13:26:59;17.93;;;10.95;;
25663;SDS011;13522;50.018;20.014;2023-01-01T13:37:49;19.70;;;9.05;;
25663;SDS011;13522;50.018;20.014;2023-01-01T13:41:01;15.48;;;9.75;;
25663;SDS011;13522;50.018;20.014;2023-01-01T13:44:25;15.90;;;8.70;;
25663;SDS011;13522;50.018;20.014;2023-01-01T13:47:38;16.60;;;8.63;;
25663;SDS011;13522;50.018;20.014;2023-01-01T13:51:13;14.00;;;8.28;;
25663;SDS011;13522;50.018;20.014;2023-01-01T13:58:53;16.38;;;8.90;;
25663;SDS011;13522;50.018;20.014;2023-01-01T14:02:33;19.30;;;9.60;;
25663;SDS011;13522;50.018;20.014;2023-01-01T14:05:51;18.85;;;10.45;;
25663;SDS011;13522;50.018;20.014;2023-01-01T14:09:10;19.05;;;10.48;;
25663;SDS011;13522;50.018;20.014;2023-01-01T14:12:24;21.30;;;11.10;;
25663;SDS011;13522;50.018;20.014;2023-01-01T14:15:38;18.23;;;10.75;;
25663;SDS011;13522;50.018;20.014;2023-01-01T14:18:57;19.48;;;10.78;;
25663;SDS011;13522;50.018;20.014;2023-01-01T14:22:14;16.83;;;10.60;;
25663;SDS011;13522;50.018;20.014;2023-01-01T14:25:27;17.75;;;10.38;;
25663;SDS011;13522;50.018;20.014;2023-01-01T14:28:40;17.98;;;10.48;;
25663;SDS011;13522;50.018;20.014;2023-01-01T14:31:53;21.98;;;10.80;;
25663;SDS011;13522;50.018;20.014;2023-01-01T14:35:12;17.88;;;10.50;;
25663;SDS011;13522;50.018;20.014;2023-01-01T14:38:26;20.65;;;10.70;;
25663;SDS011;13522;50.018;20.014;2023-01-01T14:41:41;16.28;;;11.05;;
25663;SDS011;13522;50.018;20.014;2023-01-01T14:44:53;17.90;;;10.20;;
25663;SDS011;13522;50.018;20.014;2023-01-01T14:48:06;19.90;;;10.88;;
25663;SDS011;13522;50.018;20.014;2023-01-01T14:51:25;21.75;;;10.98;;
25663;SDS011;13522;50.018;20.014;2023-01-01T14:54:42;20.30;;;11.15;;
25663;SDS011;13522;50.018;20.014;2023-01-01T14:57:56;22.50;;;10.93;;
25663;SDS011;13522;50.018;20.014;2023-01-01T15:01:16;24.45;;;14.50;;
25663;SDS011;13522;50.018;20.014;2023-01-01T15:04:32;20.28;;;11.53;;
25663;SDS011;13522;50.018;20.014;2023-01-01T15:07:53;21.20;;;11.85;;
25663;SDS011;13522;50.018;20.014;2023-01-01T15:11:07;21.68;;;12.60;;
25663;SDS011;13522;50.018;20.014;2023-01-01T15:17:49;25.98;;;11.90;;
25663;SDS011;13522;50.018;20.014;2023-01-01T15:21:01;25.60;;;14.88;;
25663;SDS011;13522;50.018;20.014;2023-01-01T15:24:18;26.20;;;12.90;;
25663;SDS011;13522;50.018;20.014;2023-01-01T15:27:33;19.00;;;11.40;;
25663;SDS011;13522;50.018;20.014;2023-01-01T15:30:51;18.25;;;11.53;;
25663;SDS011;13522;50.018;20.014;2023-01-01T15:34:05;21.75;;;13.25;;
25663;SDS011;13522;50.018;20.014;2023-01-01T15:37:31;21.13;;;13.18;;
25663;SDS011;13522;50.018;20.014;2023-01-01T15:40:43;20.07;;;11.60;;
25663;SDS011;13522;50.018;20.014;2023-01-01T15:44:07;22.93;;;12.38;;
25663;SDS011;13522;50.018;20.014;2023-01-01T15:47:28;21.15;;;12.00;;
25663;SDS011;13522;50.018;20.014;2023-01-01T15:50:55;23.28;;;12.90;;
25663;SDS011;13522;50.018;20.014;2023-01-01T15:54:14;22.83;;;12.10;;
25663;SDS011;13522;50.018;20.014;2023-01-01T15:57:27;23.60;;;12.93;;
25663;SDS011;13522;50.018;20.014;2023-01-01T16:00:39;20.52;;;12.53;;
25663;SDS011;13522;50.018;20.014;2023-01-01T16:03:53;23.08;;;12.78;;
25663;SDS011;13522;50.018;20.014;2023-01-01T16:07:15;22.43;;;13.40;;
25663;SDS011;13522;50.018;20.014;2023-01-01T16:10:29;22.25;;;12.80;;
25663;SDS011;13522;50.018;20.014;2023-01-01T16:13:41;22.85;;;13.83;;
25663;SDS011;13522;50.018;20.014;2023-01-01T16:16:54;22.48;;;13.50;;
25663;SDS011;13522;50.018;20.014;2023-01-01T16:20:08;25.33;;;13.85;;
25663;SDS011;13522;50.018;20.014;2023-01-01T16:23:25;21.95;;;13.28;;
25663;SDS011;13522;50.018;20.014;2023-01-01T16:26:37;21.38;;;13.13;;
25663;SDS011;13522;50.018;20.014;2023-01-01T16:29:49;26.48;;;14.43;;
25663;SDS011;13522;50.018;20.014;2023-01-01T16:33:02;21.95;;;13.98;;
25663;SDS011;13522;50.018;20.014;2023-01-01T16:36:19;25.53;;;13.68;;
25663;SDS011;13522;50.018;20.014;2023-01-01T16:39:32;25.58;;;13.88;;
25663;SDS011;13522;50.018;20.014;2023-01-01T16:42:44;27.00;;;14.03;;
25663;SDS011;13522;50.018;20.014;2023-01-01T16:45:56;23.10;;;13.73;;
25663;SDS011;13522;50.018;20.014;2023-01-01T16:49:10;22.90;;;14.03;;
25663;SDS011;13522;50.018;20.014;2023-01-01T16:52:22;27.28;;;14.20;;
25663;SDS011;13522;50.018;20.014;2023-01-01T16:55:36;25.20;;;14.08;;
25663;SDS011;13522;50.018;20.014;2023-01-01T16:58:49;25.38;;;14.40;;
25663;SDS011;13522;50.018;20.014;2023-01-01T17:02:03;29.13;;;14.88;;
25663;SDS011;13522;50.018;20.014;2023-01-01T17:05:18;24.23;;;14.78;;
25663;SDS011;13522;50.018;20.014;2023-01-01T17:08:30;23.65;;;15.08;;
25663;SDS011;13522;50.018;20.014;2023-01-01T17:11:43;28.33;;;15.43;;
25663;SDS011;13522;50.018;20.014;2023-01-01T17:14:55;23.60;;;15.08;;
25663;SDS011;13522;50.018;20.014;2023-01-01T17:18:07;23.40;;;15.38;;
25663;SDS011;13522;50.018;20.014;2023-01-01T17:21:22;27.43;;;16.60;;
25663;SDS011;13522;50.018;20.014;2023-01-01T17:24:34;28.08;;;16.05;;
25663;SDS011;13522;50.018;20.014;2023-01-01T17:27:47;26.40;;;16.13;;
25663;SDS011;13522;50.018;20.014;2023-01-01T17:31:02;25.65;;;15.75;;
25663;SDS011;13522;50.018;20.014;2023-01-01T17:34:15;25.83;;;15.23;;
25663;SDS011;13522;50.018;20.014;2023-01-01T17:37:28;25.93;;;15.60;;
25663;SDS011;13522;50.018;20.014;2023-01-01T17:40:40;25.00;;;15.08;;
25663;SDS011;13522;50.018;20.014;2023-01-01T17:43:52;26.45;;;16.25;;
25663;SDS011;13522;50.018;20.014;2023-01-01T17:47:05;26.33;;;15.55;;
25663;SDS011;13522;50.018;20.014;2023-01-01T17:50:17;26.88;;;14.98;;
25663;SDS011;13522;50.018;20.014;2023-01-01T17:53:29;25.63;;;15.33;;
25663;SDS011;13522;50.018;20.014;2023-01-01T17:56:42;27.30;;;17.50;;
25663;SDS011;13522;50.018;20.014;2023-01-01T17:59:54;28.40;;;16.45;;
25663;SDS011;13522;50.018;20.014;2023-01-01T18:03:11;33.53;;;20.33;;
25663;SDS011;13522;50.018;20.014;2023-01-01T18:06:26;23.88;;;14.93;;
25663;SDS011;13522;50.018;20.014;2023-01-01T18:09:41;27.53;;;14.95;;
25663;SDS011;13522;50.018;20.014;2023-01-01T18:12:55;24.83;;;14.43;;
25663;SDS011;13522;50.018;20.014;2023-01-01T18:16:08;26.68;;;15.68;;
25663;SDS011;13522;50.018;20.014;2023-01-01T18:19:22;43.73;;;27.08;;
25663;SDS011;13522;50.018;20.014;2023-01-01T18:22:35;31.65;;;18.73;;
25663;SDS011;13522;50.018;20.014;2023-01-01T18:25:48;29.30;;;16.30;;
25663;SDS011;13522;50.018;20.014;2023-01-01T18:29:00;31.85;;;17.55;;
25663;SDS011;13522;50.018;20.014;2023-01-01T18:32:13;29.90;;;18.63;;
25663;SDS011;13522;50.018;20.014;2023-01-01T18:35:48;37.45;;;19.80;;
25663;SDS011;13522;50.018;20.014;2023-01-01T18:39:08;35.58;;;18.58;;
25663;SDS011;13522;50.018;20.014;2023-01-01T18:42:35;34.90;;;19.15;;
25663;SDS011;13522;50.018;20.014;2023-01-01T18:45:53;35.58;;;19.63;;
25663;SDS011;13522;50.018;20.014;2023-01-01T18:49:08;33.05;;;20.00;;
25663;SDS011;13522;50.018;20.014;2023-01-01T18:52:21;36.10;;;20.65;;
25663;SDS011;13522;50.018;20.014;2023-01-01T18:55:35;33.43;;;18.38;;
25663;SDS011;13522;50.018;20.014;2023-01-01T19:09:42;36.63;;;23.13;;
25663;SDS011;13522;50.018;20.014;2023-01-01T19:12:57;36.03;;;21.10;;
25663;SDS011;13522;50.018;20.014;2023-01-01T19:16:26;35.35;;;20.35;;
25663;SDS011;13522;50.018;20.014;2023-01-01T19:19:39;35.80;;;22.03;;
25663;SDS011;13522;50.018;20.014;2023-01-01T19:22:52;38.40;;;22.35;;
25663;SDS011;13522;50.018;20.014;2023-01-01T19:26:10;41.53;;;24.75;;
25663;SDS011;13522;50.018;20.014;2023-01-01T19:29:27;37.10;;;22.25;;
25663;SDS011;13522;50.018;20.014;2023-01-01T19:32:42;39.43;;;23.23;;
25663;SDS011;13522;50.018;20.014;2023-01-01T19:35:54;40.83;;;23.08;;
25663;SDS011;13522;50.018;20.014;2023-01-01T19:39:08;40.75;;;23.45;;
25663;SDS011;13522;50.018;20.014;2023-01-01T19:42:21;41.63;;;24.10;;
25663;SDS011;13522;50.018;20.014;2023-01-01T19:45:34;40.20;;;24.45;;